Georgetown, Indiana
Current Conditions -  °F | °C
As of 11:56 AM on Friday 31 Oct 2014 (Local Time) from KSDF Reporting Station
Light Rain Light Rain  
Wind Chill: 50°   Ceiling: 4200
Heat Index: 50°   Visibility: 10mi
Dew Point: 41°   Wind: 8mph
Humidity: 71%   Direction: 300°WNW
Pressure: 29.99"   Gusts: NA
Location:  38.29°N, 85.98°W
Report Text: KSDF 311556Z 30007KT 10SM -RA SCT024 BKN042 OVC050 10/05 A2999 RMK AO2 RAB43 SLP157 P0000 T01000050
Loading
Personal Weather Stations






























Interactive Weather Map
Tropical Storm Tracking
New forecast layout! Learn more

10-Day Weather Forecast

Advertisements
Track Severe Weather on mobile